Lake Worth, FL

12:05 PM EST en Noviembre 23, 2014 (GMT -0500)
Suburban Lake Worth/Lantana | Change Station
CLOSE
Current Station
Estación meteorológica personal
Location: Lake Worth, FL
Altura: 21 ft
Estaciones meteorológicas cercanas

Alt 21 ft 26.60 °N, 80.16 °W | Updated 10 seconds ago

Muy nublado
Muy nublado
81.4 ° F
Sensación térmica 87 ° F
N
2.0
Viento Variable Viento desde SSE
Gusts 12.0 mph

Hoy
Alta -- | Baja -- ° F
--% Posibilidad de precipitaciones
Ayer
Alta -- | Baja -- ° F
Precip. -- pul
6:45 AM 5:28 PM
Luna nueva, 2% visible
Presión 30.01 pul
Visibilidad 10.0 Millas
Nubes Nubes dispersas 2300 ft
Muy nublado 3300 ft
Índice de calor 87 ° F
Punto de rocío 75 ° F
Humedad 80%
Precipitaciones 0.02 pul
Espesor de la nieve No disponible.
UV 4 de una escala de 12
Polen 3.10 de una escala de 12
Calidad del aire No disponible.
Flu Activity No disponible.
METAR KPBI 231653Z 15017G23KT 10SM SCT023 BKN033 28/23 A3001 RMK AO2 PK WND 15027/1632 SLP160 T02780228

More Conditions Fewer Conditions

Presión 30.01 pul
Visibilidad 10.0 Millas
Nubes Nubes dispersas 2300 ft
Muy nublado 3300 ft
Índice de calor 87 ° F
Punto de rocío 75 ° F
Humedad 80%
Precipitaciones 0.02 pul
Espesor de la nieve No disponible.
UV 4 de una escala de 12
Polen 3.10 de una escala de 12
Calidad del aire No disponible.
Flu Activity No disponible.
METAR KPBI 231653Z 15017G23KT 10SM SCT023 BKN033 28/23 A3001 RMK AO2 PK WND 15027/1632 SLP160 T02780228

More Conditions Fewer Conditions

10-Day Weather Forecast

Almanac

Astronomía

Nov. 23, 2014 Salida Puesta
Hora real
Crepúsculo civil
Crepúsculo náutico
Crepúsculo astronómico
Luna
Horas de luz
Horas de luz
Tomorrow will be .
, % of the Moon is Illuminated

Extremos de hoy

Máximos del estado Bajos del estado

Community

WunderPhotos

Upload Photos

1,773,098 ¡fotos cargadas!

WunderBlogs® & News

Nearby

Calidad del aire

  Calidad del aire Índice AQ Contaminante
Not available.

Grosos de nieve

Estación Profundido Altura

Actividad de terremotos

Ciudad Distance Mag. Tiempo y dato
Magnitud mínima muestra es 2,5.

Temperaturas de aguas costeras

Lugar Temperatura

Estaciones meteorológicas cercanas